sensor_id;sensor_type;location;lat;lon;timestamp;temperature;humidity
18297;DHT22;18066;52.106;5.534;2022-12-18T00:00:08;0.10;99.90
18297;DHT22;18066;52.106;5.534;2022-12-18T00:02:35;0.00;99.90
18297;DHT22;18066;52.106;5.534;2022-12-18T00:05:02;-0.20;99.90
18297;DHT22;18066;52.106;5.534;2022-12-18T00:07:29;-0.10;99.90
18297;DHT22;18066;52.106;5.534;2022-12-18T00:09:56;-0.10;99.90
18297;DHT22;18066;52.106;5.534;2022-12-18T00:12:23;-0.10;99.90
18297;DHT22;18066;52.106;5.534;2022-12-18T00:14:51;-0.10;99.90
18297;DHT22;18066;52.106;5.534;2022-12-18T00:17:17;-0.10;99.90
18297;DHT22;18066;52.106;5.534;2022-12-18T00:19:44;-0.10;99.90
18297;DHT22;18066;52.106;5.534;2022-12-18T00:22:11;-0.10;99.90
18297;DHT22;18066;52.106;5.534;2022-12-18T00:24:38;-0.10;99.90
18297;DHT22;18066;52.106;5.534;2022-12-18T00:27:04;-0.10;99.90
18297;DHT22;18066;52.106;5.534;2022-12-18T00:29:31;-0.10;99.90
18297;DHT22;18066;52.106;5.534;2022-12-18T00:31:59;-0.10;99.90
18297;DHT22;18066;52.106;5.534;2022-12-18T00:34:26;-0.10;99.90
18297;DHT22;18066;52.106;5.534;2022-12-18T00:36:53;0.00;99.90
18297;DHT22;18066;52.106;5.534;2022-12-18T00:39:19;0.00;99.90
18297;DHT22;18066;52.106;5.534;2022-12-18T00:41:46;0.00;99.90
18297;DHT22;18066;52.106;5.534;2022-12-18T00:44:30;0.00;99.90
18297;DHT22;18066;52.106;5.534;2022-12-18T00:46:58;0.10;99.90
18297;DHT22;18066;52.106;5.534;2022-12-18T00:49:25;-0.10;99.90
18297;DHT22;18066;52.106;5.534;2022-12-18T00:51:57;-0.10;99.90
18297;DHT22;18066;52.106;5.534;2022-12-18T00:54:24;-0.20;99.90
18297;DHT22;18066;52.106;5.534;2022-12-18T00:56:51;-0.10;99.90
18297;DHT22;18066;52.106;5.534;2022-12-18T00:59:18;-0.10;99.90
18297;DHT22;18066;52.106;5.534;2022-12-18T01:01:45;-0.10;99.90
18297;DHT22;18066;52.106;5.534;2022-12-18T01:04:14;0.00;99.90
18297;DHT22;18066;52.106;5.534;2022-12-18T01:06:41;0.00;99.90
18297;DHT22;18066;52.106;5.534;2022-12-18T01:09:08;0.00;99.90
18297;DHT22;18066;52.106;5.534;2022-12-18T01:11:34;-0.10;99.90
18297;DHT22;18066;52.106;5.534;2022-12-18T01:14:01;-0.10;99.90
18297;DHT22;18066;52.106;5.534;2022-12-18T01:16:28;-0.10;99.90
18297;DHT22;18066;52.106;5.534;2022-12-18T01:18:55;-0.10;99.90
18297;DHT22;18066;52.106;5.534;2022-12-18T01:21:23;-0.10;99.90
18297;DHT22;18066;52.106;5.534;2022-12-18T01:23:54;-0.10;99.90
18297;DHT22;18066;52.106;5.534;2022-12-18T01:26:22;0.00;99.90
18297;DHT22;18066;52.106;5.534;2022-12-18T01:28:49;-0.10;99.90
18297;DHT22;18066;52.106;5.534;2022-12-18T01:31:18;-0.20;99.90
18297;DHT22;18066;52.106;5.534;2022-12-18T01:33:49;-0.10;99.90
18297;DHT22;18066;52.106;5.534;2022-12-18T01:36:18;-0.20;99.90
18297;DHT22;18066;52.106;5.534;2022-12-18T01:38:47;-0.20;99.90
18297;DHT22;18066;52.106;5.534;2022-12-18T01:41:15;-0.30;99.90
18297;DHT22;18066;52.106;5.534;2022-12-18T01:43:48;-0.40;99.90
18297;DHT22;18066;52.106;5.534;2022-12-18T01:46:16;-0.40;99.90
18297;DHT22;18066;52.106;5.534;2022-12-18T01:48:43;-0.50;99.90
18297;DHT22;18066;52.106;5.534;2022-12-18T01:51:11;-0.50;99.90
18297;DHT22;18066;52.106;5.534;2022-12-18T01:53:42;-0.50;99.90
18297;DHT22;18066;52.106;5.534;2022-12-18T01:56:14;-0.60;99.90
18297;DHT22;18066;52.106;5.534;2022-12-18T01:58:52;-0.50;99.90
18297;DHT22;18066;52.106;5.534;2022-12-18T02:01:22;-0.50;99.90
18297;DHT22;18066;52.106;5.534;2022-12-18T02:03:49;-0.50;99.90
18297;DHT22;18066;52.106;5.534;2022-12-18T02:06:20;-0.50;99.90
18297;DHT22;18066;52.106;5.534;2022-12-18T02:08:56;-0.50;99.90
18297;DHT22;18066;52.106;5.534;2022-12-18T02:11:37;-0.60;99.90
18297;DHT22;18066;52.106;5.534;2022-12-18T02:14:15;-0.60;99.90
18297;DHT22;18066;52.106;5.534;2022-12-18T02:16:46;-0.60;99.90
18297;DHT22;18066;52.106;5.534;2022-12-18T02:19:27;-0.60;99.90
18297;DHT22;18066;52.106;5.534;2022-12-18T02:22:11;-0.60;99.90
18297;DHT22;18066;52.106;5.534;2022-12-18T02:24:44;-0.60;99.90
18297;DHT22;18066;52.106;5.534;2022-12-18T02:27:14;-0.70;99.90
18297;DHT22;18066;52.106;5.534;2022-12-18T02:29:45;-0.80;99.90
18297;DHT22;18066;52.106;5.534;2022-12-18T02:32:18;-0.90;99.90
18297;DHT22;18066;52.106;5.534;2022-12-18T02:34:46;-1.00;99.90
18297;DHT22;18066;52.106;5.534;2022-12-18T02:37:16;-1.00;99.90
18297;DHT22;18066;52.106;5.534;2022-12-18T02:39:46;-1.00;99.90
18297;DHT22;18066;52.106;5.534;2022-12-18T02:42:16;-1.00;99.90
18297;DHT22;18066;52.106;5.534;2022-12-18T02:44:45;-1.00;99.90
18297;DHT22;18066;52.106;5.534;2022-12-18T02:47:13;-1.10;99.90
18297;DHT22;18066;52.106;5.534;2022-12-18T02:49:48;-1.10;99.90
18297;DHT22;18066;52.106;5.534;2022-12-18T02:52:22;-1.10;99.90
18297;DHT22;18066;52.106;5.534;2022-12-18T02:54:57;-1.20;99.90
18297;DHT22;18066;52.106;5.534;2022-12-18T02:57:33;-1.20;99.90
18297;DHT22;18066;52.106;5.534;2022-12-18T03:00:04;-1.30;99.90
18297;DHT22;18066;52.106;5.534;2022-12-18T03:02:37;-1.30;99.90
18297;DHT22;18066;52.106;5.534;2022-12-18T03:05:10;-1.30;99.90
18297;DHT22;18066;52.106;5.534;2022-12-18T03:07:43;-1.30;99.90
18297;DHT22;18066;52.106;5.534;2022-12-18T03:10:14;-1.30;99.90
18297;DHT22;18066;52.106;5.534;2022-12-18T03:12:47;-1.30;99.90
18297;DHT22;18066;52.106;5.534;2022-12-18T03:15:21;-1.40;99.90
18297;DHT22;18066;52.106;5.534;2022-12-18T03:17:54;-1.40;99.90
18297;DHT22;18066;52.106;5.534;2022-12-18T03:20:24;-1.50;99.90
18297;DHT22;18066;52.106;5.534;2022-12-18T03:22:56;-1.50;99.90
18297;DHT22;18066;52.106;5.534;2022-12-18T03:25:25;-1.50;99.90
18297;DHT22;18066;52.106;5.534;2022-12-18T03:27:56;-1.50;99.90
18297;DHT22;18066;52.106;5.534;2022-12-18T03:30:24;-1.40;99.90
18297;DHT22;18066;52.106;5.534;2022-12-18T03:32:58;-1.50;99.90
18297;DHT22;18066;52.106;5.534;2022-12-18T03:35:30;-1.50;99.90
18297;DHT22;18066;52.106;5.534;2022-12-18T03:37:59;-1.50;99.90
18297;DHT22;18066;52.106;5.534;2022-12-18T03:40:31;-1.50;99.90
18297;DHT22;18066;52.106;5.534;2022-12-18T03:43:06;-1.60;99.90
18297;DHT22;18066;52.106;5.534;2022-12-18T03:45:37;-1.60;99.90
18297;DHT22;18066;52.106;5.534;2022-12-18T03:48:07;-1.60;99.90
18297;DHT22;18066;52.106;5.534;2022-12-18T03:50:41;-1.60;99.90
18297;DHT22;18066;52.106;5.534;2022-12-18T03:53:21;-1.70;99.90
18297;DHT22;18066;52.106;5.534;2022-12-18T03:55:50;-1.70;99.90
18297;DHT22;18066;52.106;5.534;2022-12-18T03:58:22;-1.80;99.90
18297;DHT22;18066;52.106;5.534;2022-12-18T04:00:51;-1.80;99.90
18297;DHT22;18066;52.106;5.534;2022-12-18T04:03:19;-1.80;99.90
18297;DHT22;18066;52.106;5.534;2022-12-18T04:05:48;-1.80;99.90
18297;DHT22;18066;52.106;5.534;2022-12-18T04:08:16;-1.80;99.90
18297;DHT22;18066;52.106;5.534;2022-12-18T04:10:43;-1.80;99.90
18297;DHT22;18066;52.106;5.534;2022-12-18T04:13:09;-1.80;99.90
18297;DHT22;18066;52.106;5.534;2022-12-18T04:15:38;-1.80;99.90
18297;DHT22;18066;52.106;5.534;2022-12-18T04:18:05;-1.90;99.90
18297;DHT22;18066;52.106;5.534;2022-12-18T04:20:31;-2.00;99.90
18297;DHT22;18066;52.106;5.534;2022-12-18T04:22:58;-2.00;99.90
18297;DHT22;18066;52.106;5.534;2022-12-18T04:25:25;-2.10;99.90
18297;DHT22;18066;52.106;5.534;2022-12-18T04:27:52;-2.10;99.90
18297;DHT22;18066;52.106;5.534;2022-12-18T04:30:18;-2.10;99.90
18297;DHT22;18066;52.106;5.534;2022-12-18T04:32:46;-2.10;99.90
18297;DHT22;18066;52.106;5.534;2022-12-18T04:35:13;-2.10;99.90
18297;DHT22;18066;52.106;5.534;2022-12-18T04:37:40;-2.10;99.90
18297;DHT22;18066;52.106;5.534;2022-12-18T04:40:07;-2.20;99.90
18297;DHT22;18066;52.106;5.534;2022-12-18T04:42:34;-2.20;99.90
18297;DHT22;18066;52.106;5.534;2022-12-18T04:45:01;-2.30;99.90
18297;DHT22;18066;52.106;5.534;2022-12-18T04:47:28;-2.20;99.90
18297;DHT22;18066;52.106;5.534;2022-12-18T04:49:56;-2.20;99.90
18297;DHT22;18066;52.106;5.534;2022-12-18T04:52:23;-2.20;99.90
18297;DHT22;18066;52.106;5.534;2022-12-18T04:54:49;-2.20;99.90
18297;DHT22;18066;52.106;5.534;2022-12-18T04:57:16;-2.20;99.90
18297;DHT22;18066;52.106;5.534;2022-12-18T04:59:44;-2.20;99.90
18297;DHT22;18066;52.106;5.534;2022-12-18T05:02:11;-2.10;99.90
18297;DHT22;18066;52.106;5.534;2022-12-18T05:04:38;-2.10;99.90
18297;DHT22;18066;52.106;5.534;2022-12-18T05:07:06;-2.10;99.90
18297;DHT22;18066;52.106;5.534;2022-12-18T05:09:33;-2.20;99.90
18297;DHT22;18066;52.106;5.534;2022-12-18T05:12:00;-2.20;99.90
18297;DHT22;18066;52.106;5.534;2022-12-18T05:14:27;-2.20;99.90
18297;DHT22;18066;52.106;5.534;2022-12-18T05:16:54;-2.20;99.90
18297;DHT22;18066;52.106;5.534;2022-12-18T05:19:21;-2.20;99.90
18297;DHT22;18066;52.106;5.534;2022-12-18T05:21:48;-2.20;99.90
18297;DHT22;18066;52.106;5.534;2022-12-18T05:24:16;-2.20;99.90
18297;DHT22;18066;52.106;5.534;2022-12-18T05:26:43;-2.30;99.90
18297;DHT22;18066;52.106;5.534;2022-12-18T05:29:09;-2.30;99.90
18297;DHT22;18066;52.106;5.534;2022-12-18T05:31:37;-2.30;99.90
18297;DHT22;18066;52.106;5.534;2022-12-18T05:34:04;-2.30;99.90
18297;DHT22;18066;52.106;5.534;2022-12-18T05:36:31;-2.30;99.90
18297;DHT22;18066;52.106;5.534;2022-12-18T05:38:58;-2.30;99.90
18297;DHT22;18066;52.106;5.534;2022-12-18T05:41:27;-2.30;99.90
18297;DHT22;18066;52.106;5.534;2022-12-18T05:43:54;-2.30;99.90
18297;DHT22;18066;52.106;5.534;2022-12-18T05:46:20;-2.40;99.90
18297;DHT22;18066;52.106;5.534;2022-12-18T05:48:47;-2.40;99.90
18297;DHT22;18066;52.106;5.534;2022-12-18T05:51:17;-2.40;99.90
18297;DHT22;18066;52.106;5.534;2022-12-18T05:53:44;-2.30;99.90
18297;DHT22;18066;52.106;5.534;2022-12-18T05:56:13;-2.40;99.90
18297;DHT22;18066;52.106;5.534;2022-12-18T05:58:41;-2.40;99.90
18297;DHT22;18066;52.106;5.534;2022-12-18T06:01:11;-2.40;99.90
18297;DHT22;18066;52.106;5.534;2022-12-18T06:03:38;-2.40;99.90
18297;DHT22;18066;52.106;5.534;2022-12-18T06:06:13;-2.40;99.90
18297;DHT22;18066;52.106;5.534;2022-12-18T06:08:40;-2.50;99.90
18297;DHT22;18066;52.106;5.534;2022-12-18T06:11:06;-2.50;99.90
18297;DHT22;18066;52.106;5.534;2022-12-18T06:13:33;-2.50;99.90
18297;DHT22;18066;52.106;5.534;2022-12-18T06:16:03;-2.50;99.90
18297;DHT22;18066;52.106;5.534;2022-12-18T06:18:30;-2.50;99.90
18297;DHT22;18066;52.106;5.534;2022-12-18T06:20:57;-2.50;99.90
18297;DHT22;18066;52.106;5.534;2022-12-18T06:23:25;-2.50;99.90
18297;DHT22;18066;52.106;5.534;2022-12-18T06:25:51;-2.50;99.90
18297;DHT22;18066;52.106;5.534;2022-12-18T06:28:18;-2.60;99.90
18297;DHT22;18066;52.106;5.534;2022-12-18T06:30:45;-2.60;99.90
18297;DHT22;18066;52.106;5.534;2022-12-18T06:33:15;-2.50;99.90
18297;DHT22;18066;52.106;5.534;2022-12-18T06:35:42;-2.50;99.90
18297;DHT22;18066;52.106;5.534;2022-12-18T06:38:09;-2.50;99.90
18297;DHT22;18066;52.106;5.534;2022-12-18T06:40:37;-2.50;99.90
18297;DHT22;18066;52.106;5.534;2022-12-18T06:43:04;-2.50;99.90
18297;DHT22;18066;52.106;5.534;2022-12-18T06:45:31;-2.40;99.90
18297;DHT22;18066;52.106;5.534;2022-12-18T06:47:57;-2.40;99.90
18297;DHT22;18066;52.106;5.534;2022-12-18T06:50:26;-2.40;99.90
18297;DHT22;18066;52.106;5.534;2022-12-18T06:52:53;-2.40;99.90
18297;DHT22;18066;52.106;5.534;2022-12-18T06:55:19;-2.40;99.90
18297;DHT22;18066;52.106;5.534;2022-12-18T06:57:46;-2.40;99.90
18297;DHT22;18066;52.106;5.534;2022-12-18T07:00:13;-2.50;99.90
18297;DHT22;18066;52.106;5.534;2022-12-18T07:02:40;-2.50;99.90
18297;DHT22;18066;52.106;5.534;2022-12-18T07:05:07;-2.50;99.90
18297;DHT22;18066;52.106;5.534;2022-12-18T07:07:35;-2.40;99.90
18297;DHT22;18066;52.106;5.534;2022-12-18T07:10:03;-2.40;99.90
18297;DHT22;18066;52.106;5.534;2022-12-18T07:12:29;-2.40;99.90
18297;DHT22;18066;52.106;5.534;2022-12-18T07:14:56;-2.40;99.90
18297;DHT22;18066;52.106;5.534;2022-12-18T07:17:23;-2.30;99.90
18297;DHT22;18066;52.106;5.534;2022-12-18T07:19:49;-2.30;99.90
18297;DHT22;18066;52.106;5.534;2022-12-18T07:22:16;-2.20;99.90
18297;DHT22;18066;52.106;5.534;2022-12-18T07:24:44;-2.20;99.90
18297;DHT22;18066;52.106;5.534;2022-12-18T07:27:11;-2.20;99.90
18297;DHT22;18066;52.106;5.534;2022-12-18T07:29:38;-2.20;99.90
18297;DHT22;18066;52.106;5.534;2022-12-18T07:32:05;-2.20;99.90
18297;DHT22;18066;52.106;5.534;2022-12-18T07:34:32;-2.20;99.90
18297;DHT22;18066;52.106;5.534;2022-12-18T07:36:59;-2.20;99.90
18297;DHT22;18066;52.106;5.534;2022-12-18T07:39:25;-2.20;99.90
18297;DHT22;18066;52.106;5.534;2022-12-18T07:41:54;-2.10;99.90
18297;DHT22;18066;52.106;5.534;2022-12-18T07:44:34;-2.10;99.90
18297;DHT22;18066;52.106;5.534;2022-12-18T07:47:01;-2.10;99.90
18297;DHT22;18066;52.106;5.534;2022-12-18T07:49:28;-2.10;99.90
18297;DHT22;18066;52.106;5.534;2022-12-18T07:51:55;-2.20;99.90
18297;DHT22;18066;52.106;5.534;2022-12-18T07:54:22;-2.20;99.90
18297;DHT22;18066;52.106;5.534;2022-12-18T07:56:49;-2.20;99.90
18297;DHT22;18066;52.106;5.534;2022-12-18T07:59:17;-2.10;99.90
18297;DHT22;18066;52.106;5.534;2022-12-18T08:01:44;-2.10;99.90
18297;DHT22;18066;52.106;5.534;2022-12-18T08:04:10;-2.10;99.90
18297;DHT22;18066;52.106;5.534;2022-12-18T08:06:37;-2.00;99.90
18297;DHT22;18066;52.106;5.534;2022-12-18T08:09:04;-1.90;99.90
18297;DHT22;18066;52.106;5.534;2022-12-18T08:11:31;-1.80;99.90
18297;DHT22;18066;52.106;5.534;2022-12-18T08:13:58;-1.70;99.90
18297;DHT22;18066;52.106;5.534;2022-12-18T08:16:26;-1.60;99.90
18297;DHT22;18066;52.106;5.534;2022-12-18T08:18:53;-1.50;99.90
18297;DHT22;18066;52.106;5.534;2022-12-18T08:21:22;-1.50;99.90
18297;DHT22;18066;52.106;5.534;2022-12-18T08:23:49;-1.30;99.90
18297;DHT22;18066;52.106;5.534;2022-12-18T08:26:16;-1.30;99.90
18297;DHT22;18066;52.106;5.534;2022-12-18T08:28:43;-1.20;99.90
18297;DHT22;18066;52.106;5.534;2022-12-18T08:31:09;-1.20;99.90
18297;DHT22;18066;52.106;5.534;2022-12-18T08:33:38;-1.10;99.90
18297;DHT22;18066;52.106;5.534;2022-12-18T08:36:06;-1.00;99.90
18297;DHT22;18066;52.106;5.534;2022-12-18T08:38:33;-1.00;99.90
18297;DHT22;18066;52.106;5.534;2022-12-18T08:41:00;-1.00;99.90
18297;DHT22;18066;52.106;5.534;2022-12-18T08:43:27;-0.90;99.90
18297;DHT22;18066;52.106;5.534;2022-12-18T08:46:18;-0.80;99.90
18297;DHT22;18066;52.106;5.534;2022-12-18T08:48:47;-0.70;99.90
18297;DHT22;18066;52.106;5.534;2022-12-18T08:51:16;-0.60;99.90
18297;DHT22;18066;52.106;5.534;2022-12-18T08:53:43;-0.50;99.90
18297;DHT22;18066;52.106;5.534;2022-12-18T08:56:11;-0.40;99.90
18297;DHT22;18066;52.106;5.534;2022-12-18T08:58:38;-0.40;99.90
18297;DHT22;18066;52.106;5.534;2022-12-18T09:01:07;-0.30;99.90
18297;DHT22;18066;52.106;5.534;2022-12-18T09:03:34;-0.30;99.90
18297;DHT22;18066;52.106;5.534;2022-12-18T09:06:03;-0.20;99.90
18297;DHT22;18066;52.106;5.534;2022-12-18T09:08:30;-0.10;99.90
18297;DHT22;18066;52.106;5.534;2022-12-18T09:10:57;0.00;99.90
18297;DHT22;18066;52.106;5.534;2022-12-18T09:13:23;0.00;99.90
18297;DHT22;18066;52.106;5.534;2022-12-18T09:15:52;0.00;99.90
18297;DHT22;18066;52.106;5.534;2022-12-18T09:18:21;0.10;99.90
18297;DHT22;18066;52.106;5.534;2022-12-18T09:20:47;0.10;99.90
18297;DHT22;18066;52.106;5.534;2022-12-18T09:23:17;0.20;99.90
18297;DHT22;18066;52.106;5.534;2022-12-18T09:25:43;0.20;99.90
18297;DHT22;18066;52.106;5.534;2022-12-18T09:28:17;0.30;99.90
18297;DHT22;18066;52.106;5.534;2022-12-18T09:30:46;0.30;99.90
18297;DHT22;18066;52.106;5.534;2022-12-18T09:33:14;0.40;99.90
18297;DHT22;18066;52.106;5.534;2022-12-18T09:35:41;0.30;99.90
18297;DHT22;18066;52.106;5.534;2022-12-18T09:38:12;0.30;99.90
18297;DHT22;18066;52.106;5.534;2022-12-18T09:40:44;0.30;99.90
18297;DHT22;18066;52.106;5.534;2022-12-18T09:43:17;0.20;99.90
18297;DHT22;18066;52.106;5.534;2022-12-18T09:45:46;0.30;99.90
18297;DHT22;18066;52.106;5.534;2022-12-18T09:48:19;0.40;99.90
18297;DHT22;18066;52.106;5.534;2022-12-18T09:50:48;0.40;99.90
18297;DHT22;18066;52.106;5.534;2022-12-18T09:53:20;0.40;99.90
18297;DHT22;18066;52.106;5.534;2022-12-18T09:55:49;0.40;99.90
18297;DHT22;18066;52.106;5.534;2022-12-18T09:58:22;0.50;99.90
18297;DHT22;18066;52.106;5.534;2022-12-18T10:00:52;0.50;99.90
18297;DHT22;18066;52.106;5.534;2022-12-18T10:03:19;0.60;99.90
18297;DHT22;18066;52.106;5.534;2022-12-18T10:05:54;0.60;99.90
18297;DHT22;18066;52.106;5.534;2022-12-18T10:08:33;0.70;99.90
18297;DHT22;18066;52.106;5.534;2022-12-18T10:11:18;0.70;99.90
18297;DHT22;18066;52.106;5.534;2022-12-18T10:13:50;0.80;99.90
18297;DHT22;18066;52.106;5.534;2022-12-18T10:16:23;0.90;99.90
18297;DHT22;18066;52.106;5.534;2022-12-18T10:19:04;0.90;99.90
18297;DHT22;18066;52.106;5.534;2022-12-18T10:21:39;0.90;99.90
18297;DHT22;18066;52.106;5.534;2022-12-18T10:24:14;1.00;99.90
18297;DHT22;18066;52.106;5.534;2022-12-18T10:26:46;1.00;99.90
18297;DHT22;18066;52.106;5.534;2022-12-18T10:29:15;0.90;99.90
18297;DHT22;18066;52.106;5.534;2022-12-18T10:31:42;0.80;99.90
18297;DHT22;18066;52.106;5.534;2022-12-18T10:34:10;0.90;99.90
18297;DHT22;18066;52.106;5.534;2022-12-18T10:36:37;0.90;99.90
18297;DHT22;18066;52.106;5.534;2022-12-18T10:39:19;0.90;99.90
18297;DHT22;18066;52.106;5.534;2022-12-18T10:41:52;0.90;99.90
18297;DHT22;18066;52.106;5.534;2022-12-18T10:44:33;1.00;99.90
18297;DHT22;18066;52.106;5.534;2022-12-18T10:47:03;1.10;99.90
18297;DHT22;18066;52.106;5.534;2022-12-18T10:49:32;1.10;99.90
18297;DHT22;18066;52.106;5.534;2022-12-18T10:52:13;1.20;99.90
18297;DHT22;18066;52.106;5.534;2022-12-18T10:54:47;1.30;99.90
18297;DHT22;18066;52.106;5.534;2022-12-18T10:57:20;1.30;99.90
18297;DHT22;18066;52.106;5.534;2022-12-18T10:59:57;1.30;99.90
18297;DHT22;18066;52.106;5.534;2022-12-18T11:02:34;1.40;99.90
18297;DHT22;18066;52.106;5.534;2022-12-18T11:05:01;1.30;99.90
18297;DHT22;18066;52.106;5.534;2022-12-18T11:07:48;1.30;99.90
18297;DHT22;18066;52.106;5.534;2022-12-18T11:10:17;1.50;99.90
18297;DHT22;18066;52.106;5.534;2022-12-18T11:12:45;1.50;99.90
18297;DHT22;18066;52.106;5.534;2022-12-18T11:15:16;1.60;99.90
18297;DHT22;18066;52.106;5.534;2022-12-18T11:17:48;1.60;99.90
18297;DHT22;18066;52.106;5.534;2022-12-18T11:20:29;1.70;99.90
18297;DHT22;18066;52.106;5.534;2022-12-18T11:22:58;1.80;99.90
18297;DHT22;18066;52.106;5.534;2022-12-18T11:25:29;1.60;99.90
18297;DHT22;18066;52.106;5.534;2022-12-18T11:27:59;1.60;99.90
18297;DHT22;18066;52.106;5.534;2022-12-18T11:30:29;1.70;99.90
18297;DHT22;18066;52.106;5.534;2022-12-18T11:33:00;1.70;99.90
18297;DHT22;18066;52.106;5.534;2022-12-18T11:35:37;1.70;99.90
18297;DHT22;18066;52.106;5.534;2022-12-18T11:38:10;1.80;99.90
18297;DHT22;18066;52.106;5.534;2022-12-18T11:40:43;1.90;99.90
18297;DHT22;18066;52.106;5.534;2022-12-18T11:43:16;1.90;99.90
18297;DHT22;18066;52.106;5.534;2022-12-18T11:45:49;2.00;99.90
18297;DHT22;18066;52.106;5.534;2022-12-18T11:48:22;2.00;99.90
18297;DHT22;18066;52.106;5.534;2022-12-18T11:50:51;2.00;99.90
18297;DHT22;18066;52.106;5.534;2022-12-18T11:53:19;2.00;99.90
18297;DHT22;18066;52.106;5.534;2022-12-18T11:56:00;2.10;99.90
18297;DHT22;18066;52.106;5.534;2022-12-18T11:58:41;2.20;99.90
18297;DHT22;18066;52.106;5.534;2022-12-18T12:01:16;2.30;99.90
18297;DHT22;18066;52.106;5.534;2022-12-18T12:04:00;2.40;99.90
18297;DHT22;18066;52.106;5.534;2022-12-18T12:06:38;2.30;99.90
18297;DHT22;18066;52.106;5.534;2022-12-18T12:09:15;2.30;99.90
18297;DHT22;18066;52.106;5.534;2022-12-18T12:11:52;2.40;99.90
18297;DHT22;18066;52.106;5.534;2022-12-18T12:14:35;2.40;99.90
18297;DHT22;18066;52.106;5.534;2022-12-18T12:17:13;2.40;99.90
18297;DHT22;18066;52.106;5.534;2022-12-18T12:19:50;2.50;99.90
18297;DHT22;18066;52.106;5.534;2022-12-18T12:22:26;2.50;99.90
18297;DHT22;18066;52.106;5.534;2022-12-18T12:25:05;2.40;99.90
18297;DHT22;18066;52.106;5.534;2022-12-18T12:27:40;2.40;99.90
18297;DHT22;18066;52.106;5.534;2022-12-18T12:30:18;2.40;99.90
18297;DHT22;18066;52.106;5.534;2022-12-18T12:32:58;2.30;99.90
18297;DHT22;18066;52.106;5.534;2022-12-18T12:35:36;2.30;99.90
18297;DHT22;18066;52.106;5.534;2022-12-18T12:38:10;2.40;99.90
18297;DHT22;18066;52.106;5.534;2022-12-18T12:40:43;2.40;99.90
18297;DHT22;18066;52.106;5.534;2022-12-18T12:43:23;2.40;99.90
18297;DHT22;18066;52.106;5.534;2022-12-18T12:45:55;2.50;99.90
18297;DHT22;18066;52.106;5.534;2022-12-18T12:48:33;2.60;99.90
18297;DHT22;18066;52.106;5.534;2022-12-18T12:51:03;2.50;99.90
18297;DHT22;18066;52.106;5.534;2022-12-18T12:53:33;2.60;99.90
18297;DHT22;18066;52.106;5.534;2022-12-18T12:56:01;2.70;99.90
18297;DHT22;18066;52.106;5.534;2022-12-18T12:58:33;2.70;99.90
18297;DHT22;18066;52.106;5.534;2022-12-18T13:01:17;2.80;99.90
18297;DHT22;18066;52.106;5.534;2022-12-18T13:03:53;2.70;99.90
18297;DHT22;18066;52.106;5.534;2022-12-18T13:06:29;2.70;99.90
18297;DHT22;18066;52.106;5.534;2022-12-18T13:09:00;2.70;99.90
18297;DHT22;18066;52.106;5.534;2022-12-18T13:11:46;2.70;99.90
18297;DHT22;18066;52.106;5.534;2022-12-18T13:14:32;2.70;99.90
18297;DHT22;18066;52.106;5.534;2022-12-18T13:17:27;2.70;99.90
18297;DHT22;18066;52.106;5.534;2022-12-18T13:20:13;2.60;99.90
18297;DHT22;18066;52.106;5.534;2022-12-18T13:22:43;2.60;99.90
18297;DHT22;18066;52.106;5.534;2022-12-18T13:25:30;2.60;99.90
18297;DHT22;18066;52.106;5.534;2022-12-18T13:28:10;2.60;99.90
18297;DHT22;18066;52.106;5.534;2022-12-18T13:30:54;2.60;99.90
18297;DHT22;18066;52.106;5.534;2022-12-18T13:33:41;2.60;99.90
18297;DHT22;18066;52.106;5.534;2022-12-18T13:36:27;2.70;99.90
18297;DHT22;18066;52.106;5.534;2022-12-18T13:42:34;2.70;99.90
18297;DHT22;18066;52.106;5.534;2022-12-18T13:45:43;2.70;99.90
18297;DHT22;18066;52.106;5.534;2022-12-18T13:48:22;2.60;99.90
18297;DHT22;18066;52.106;5.534;2022-12-18T13:51:00;2.60;99.90
18297;DHT22;18066;52.106;5.534;2022-12-18T13:53:33;2.60;99.90
18297;DHT22;18066;52.106;5.534;2022-12-18T13:56:02;2.60;99.90
18297;DHT22;18066;52.106;5.534;2022-12-18T13:58:29;2.60;99.90
18297;DHT22;18066;52.106;5.534;2022-12-18T14:00:55;2.60;99.90
18297;DHT22;18066;52.106;5.534;2022-12-18T14:03:27;2.60;99.90
18297;DHT22;18066;52.106;5.534;2022-12-18T14:06:02;2.70;99.90
18297;DHT22;18066;52.106;5.534;2022-12-18T14:08:36;2.70;99.90
18297;DHT22;18066;52.106;5.534;2022-12-18T14:11:04;2.70;99.90
18297;DHT22;18066;52.106;5.534;2022-12-18T14:13:34;2.70;99.90
18297;DHT22;18066;52.106;5.534;2022-12-18T14:16:04;2.60;99.90
18297;DHT22;18066;52.106;5.534;2022-12-18T14:18:38;2.60;99.90
18297;DHT22;18066;52.106;5.534;2022-12-18T14:21:13;2.60;99.90
18297;DHT22;18066;52.106;5.534;2022-12-18T14:23:42;2.50;99.90
18297;DHT22;18066;52.106;5.534;2022-12-18T14:26:22;2.40;99.90
18297;DHT22;18066;52.106;5.534;2022-12-18T14:28:50;2.50;99.90
18297;DHT22;18066;52.106;5.534;2022-12-18T14:31:18;2.50;99.90
18297;DHT22;18066;52.106;5.534;2022-12-18T14:33:45;2.50;99.90
18297;DHT22;18066;52.106;5.534;2022-12-18T14:36:16;2.40;99.90
18297;DHT22;18066;52.106;5.534;2022-12-18T14:38:48;2.30;99.90
18297;DHT22;18066;52.106;5.534;2022-12-18T14:41:17;2.30;99.90
18297;DHT22;18066;52.106;5.534;2022-12-18T14:43:45;2.40;99.90
18297;DHT22;18066;52.106;5.534;2022-12-18T14:46:29;2.40;99.90
18297;DHT22;18066;52.106;5.534;2022-12-18T14:48:56;2.30;99.90
18297;DHT22;18066;52.106;5.534;2022-12-18T14:51:28;2.30;99.90
18297;DHT22;18066;52.106;5.534;2022-12-18T14:53:57;2.40;99.90
18297;DHT22;18066;52.106;5.534;2022-12-18T14:56:27;2.40;99.90
18297;DHT22;18066;52.106;5.534;2022-12-18T14:58:56;2.40;99.90
18297;DHT22;18066;52.106;5.534;2022-12-18T15:01:26;2.40;99.90
18297;DHT22;18066;52.106;5.534;2022-12-18T15:03:55;2.40;99.90
18297;DHT22;18066;52.106;5.534;2022-12-18T15:06:28;2.50;99.90
18297;DHT22;18066;52.106;5.534;2022-12-18T15:08:56;2.50;99.90
18297;DHT22;18066;52.106;5.534;2022-12-18T15:11:29;2.50;99.90
18297;DHT22;18066;52.106;5.534;2022-12-18T15:13:58;2.50;99.90
18297;DHT22;18066;52.106;5.534;2022-12-18T15:16:26;2.40;99.90
18297;DHT22;18066;52.106;5.534;2022-12-18T15:18:53;2.40;99.90
18297;DHT22;18066;52.106;5.534;2022-12-18T15:21:20;2.40;99.90
18297;DHT22;18066;52.106;5.534;2022-12-18T15:23:50;2.40;99.90
18297;DHT22;18066;52.106;5.534;2022-12-18T15:26:18;2.40;99.90
18297;DHT22;18066;52.106;5.534;2022-12-18T15:28:47;2.40;99.90
18297;DHT22;18066;52.106;5.534;2022-12-18T15:31:29;2.40;99.90
18297;DHT22;18066;52.106;5.534;2022-12-18T15:34:22;2.30;99.90
18297;DHT22;18066;52.106;5.534;2022-12-18T15:36:50;2.40;99.90
18297;DHT22;18066;52.106;5.534;2022-12-18T15:39:19;2.30;99.90
18297;DHT22;18066;52.106;5.534;2022-12-18T15:41:46;2.40;99.90
18297;DHT22;18066;52.106;5.534;2022-12-18T15:44:27;2.40;99.90
18297;DHT22;18066;52.106;5.534;2022-12-18T15:46:57;2.40;99.90
18297;DHT22;18066;52.106;5.534;2022-12-18T15:49:23;2.40;99.90
18297;DHT22;18066;52.106;5.534;2022-12-18T15:51:52;2.40;99.90
18297;DHT22;18066;52.106;5.534;2022-12-18T15:54:21;2.40;99.90
18297;DHT22;18066;52.106;5.534;2022-12-18T15:57:09;2.40;99.90
18297;DHT22;18066;52.106;5.534;2022-12-18T15:59:52;2.30;99.90
18297;DHT22;18066;52.106;5.534;2022-12-18T16:02:21;2.30;99.90